sensor_id;sensor_type;location;lat;lon;timestamp;pressure;altitude;pressure_sealevel;temperature;humidity
13934;BME280;7039;52.168;9.866;2023-12-20T00:01:54;100159.34;;;6.89;100.00
13934;BME280;7039;52.168;9.866;2023-12-20T00:04:22;100158.28;;;7.15;100.00
13934;BME280;7039;52.168;9.866;2023-12-20T00:06:48;100145.63;;;7.07;100.00
13934;BME280;7039;52.168;9.866;2023-12-20T00:09:15;100160.03;;;7.15;100.00
13934;BME280;7039;52.168;9.866;2023-12-20T00:11:41;100159.41;;;7.30;100.00
13934;BME280;7039;52.168;9.866;2023-12-20T00:14:08;100154.66;;;7.40;100.00
13934;BME280;7039;52.168;9.866;2023-12-20T00:16:34;100151.69;;;7.28;100.00
13934;BME280;7039;52.168;9.866;2023-12-20T00:19:01;100161.88;;;7.33;100.00
13934;BME280;7039;52.168;9.866;2023-12-20T00:21:29;100165.03;;;7.19;100.00
13934;BME280;7039;52.168;9.866;2023-12-20T00:23:55;100168.41;;;7.42;100.00
13934;BME280;7039;52.168;9.866;2023-12-20T00:26:21;100171.47;;;7.51;100.00
13934;BME280;7039;52.168;9.866;2023-12-20T00:28:48;100172.84;;;7.60;100.00
13934;BME280;7039;52.168;9.866;2023-12-20T00:31:14;100163.88;;;7.47;100.00
13934;BME280;7039;52.168;9.866;2023-12-20T00:33:41;100167.03;;;7.74;100.00
13934;BME280;7039;52.168;9.866;2023-12-20T00:36:08;100177.56;;;7.71;100.00
13934;BME280;7039;52.168;9.866;2023-12-20T00:38:36;100177.81;;;7.65;100.00
13934;BME280;7039;52.168;9.866;2023-12-20T00:41:03;100179.53;;;7.66;100.00
13934;BME280;7039;52.168;9.866;2023-12-20T00:43:29;100188.78;;;7.71;100.00
13934;BME280;7039;52.168;9.866;2023-12-20T00:45:56;100203.59;;;7.69;100.00
13934;BME280;7039;52.168;9.866;2023-12-20T00:48:25;100197.81;;;7.42;100.00
13934;BME280;7039;52.168;9.866;2023-12-20T00:50:52;100200.09;;;7.50;100.00
13934;BME280;7039;52.168;9.866;2023-12-20T00:53:18;100190.69;;;7.47;100.00
13934;BME280;7039;52.168;9.866;2023-12-20T00:55:46;100192.69;;;7.41;100.00
13934;BME280;7039;52.168;9.866;2023-12-20T00:58:13;100197.75;;;7.44;100.00
13934;BME280;7039;52.168;9.866;2023-12-20T01:00:40;100188.06;;;7.27;100.00
13934;BME280;7039;52.168;9.866;2023-12-20T01:03:07;100186.94;;;7.12;100.00
13934;BME280;7039;52.168;9.866;2023-12-20T01:05:33;100175.41;;;7.19;100.00
13934;BME280;7039;52.168;9.866;2023-12-20T01:08:00;100181.47;;;6.98;100.00
13934;BME280;7039;52.168;9.866;2023-12-20T01:10:28;100169.06;;;6.84;100.00
13934;BME280;7039;52.168;9.866;2023-12-20T01:12:56;100169.28;;;6.78;100.00
13934;BME280;7039;52.168;9.866;2023-12-20T01:15:22;100164.88;;;6.58;98.70
13934;BME280;7039;52.168;9.866;2023-12-20T01:17:49;100161.00;;;6.46;98.70
13934;BME280;7039;52.168;9.866;2023-12-20T01:20:15;100169.75;;;6.43;98.46
13934;BME280;7039;52.168;9.866;2023-12-20T01:22:42;100157.94;;;6.36;97.96
13934;BME280;7039;52.168;9.866;2023-12-20T01:25:11;100157.41;;;6.26;97.84
13934;BME280;7039;52.168;9.866;2023-12-20T01:27:37;100163.34;;;6.30;97.23
13934;BME280;7039;52.168;9.866;2023-12-20T01:30:07;100165.28;;;6.47;95.95
13934;BME280;7039;52.168;9.866;2023-12-20T01:32:33;100160.63;;;6.33;96.79
13934;BME280;7039;52.168;9.866;2023-12-20T01:34:59;100162.38;;;6.33;97.66
13934;BME280;7039;52.168;9.866;2023-12-20T01:37:26;100167.34;;;6.39;97.61
13934;BME280;7039;52.168;9.866;2023-12-20T01:39:54;100157.19;;;6.33;97.52
13934;BME280;7039;52.168;9.866;2023-12-20T01:42:21;100160.25;;;6.20;99.06
13934;BME280;7039;52.168;9.866;2023-12-20T01:44:48;100161.88;;;6.23;98.64
13934;BME280;7039;52.168;9.866;2023-12-20T01:47:16;100165.13;;;6.28;98.34
13934;BME280;7039;52.168;9.866;2023-12-20T01:49:43;100171.56;;;6.18;98.17
13934;BME280;7039;52.168;9.866;2023-12-20T01:52:09;100169.88;;;6.17;98.42
13934;BME280;7039;52.168;9.866;2023-12-20T01:54:37;100175.28;;;6.34;97.71
13934;BME280;7039;52.168;9.866;2023-12-20T01:57:05;100169.19;;;6.12;98.37
13934;BME280;7039;52.168;9.866;2023-12-20T01:59:33;100178.91;;;6.28;98.16
13934;BME280;7039;52.168;9.866;2023-12-20T02:02:00;100166.22;;;6.22;97.70
13934;BME280;7039;52.168;9.866;2023-12-20T02:04:29;100166.28;;;6.21;98.48
13934;BME280;7039;52.168;9.866;2023-12-20T02:06:56;100170.88;;;6.13;98.44
13934;BME280;7039;52.168;9.866;2023-12-20T02:09:23;100175.63;;;6.25;98.20
13934;BME280;7039;52.168;9.866;2023-12-20T02:11:50;100182.31;;;6.31;98.32
13934;BME280;7039;52.168;9.866;2023-12-20T02:14:16;100189.03;;;6.36;97.80
13934;BME280;7039;52.168;9.866;2023-12-20T02:16:43;100180.22;;;6.40;97.63
13934;BME280;7039;52.168;9.866;2023-12-20T02:19:13;100185.25;;;6.45;98.23
13934;BME280;7039;52.168;9.866;2023-12-20T02:21:41;100194.81;;;6.43;97.62
13934;BME280;7039;52.168;9.866;2023-12-20T02:24:07;100192.31;;;6.40;97.36
13934;BME280;7039;52.168;9.866;2023-12-20T02:26:34;100187.69;;;6.24;98.18
13934;BME280;7039;52.168;9.866;2023-12-20T02:29:01;100184.81;;;6.34;97.03
13934;BME280;7039;52.168;9.866;2023-12-20T02:31:28;100175.16;;;6.37;97.44
13934;BME280;7039;52.168;9.866;2023-12-20T02:33:54;100177.28;;;6.26;96.03
13934;BME280;7039;52.168;9.866;2023-12-20T02:36:21;100166.44;;;6.16;96.37
13934;BME280;7039;52.168;9.866;2023-12-20T02:38:49;100157.84;;;6.16;95.34
13934;BME280;7039;52.168;9.866;2023-12-20T02:41:15;100157.75;;;6.17;94.85
13934;BME280;7039;52.168;9.866;2023-12-20T02:43:43;100155.13;;;5.95;95.76
13934;BME280;7039;52.168;9.866;2023-12-20T02:46:09;100157.94;;;6.13;94.73
13934;BME280;7039;52.168;9.866;2023-12-20T02:48:36;100166.69;;;6.09;94.36
13934;BME280;7039;52.168;9.866;2023-12-20T02:51:03;100162.56;;;6.04;94.46
13934;BME280;7039;52.168;9.866;2023-12-20T02:53:29;100158.34;;;6.02;93.81
13934;BME280;7039;52.168;9.866;2023-12-20T02:55:57;100156.59;;;6.02;94.47
13934;BME280;7039;52.168;9.866;2023-12-20T02:58:23;100151.81;;;5.90;94.99
13934;BME280;7039;52.168;9.866;2023-12-20T03:00:50;100138.38;;;5.80;96.53
13934;BME280;7039;52.168;9.866;2023-12-20T03:03:17;100141.56;;;5.87;96.35
13934;BME280;7039;52.168;9.866;2023-12-20T03:05:44;100149.66;;;6.03;95.38
13934;BME280;7039;52.168;9.866;2023-12-20T03:08:11;100147.38;;;5.94;95.07
13934;BME280;7039;52.168;9.866;2023-12-20T03:10:37;100150.78;;;5.96;93.84
13934;BME280;7039;52.168;9.866;2023-12-20T03:13:05;100150.63;;;6.00;92.81
13934;BME280;7039;52.168;9.866;2023-12-20T03:15:32;100145.06;;;5.86;92.51
13934;BME280;7039;52.168;9.866;2023-12-20T03:17:58;100140.81;;;5.83;90.68
13934;BME280;7039;52.168;9.866;2023-12-20T03:20:25;100136.34;;;5.89;90.56
13934;BME280;7039;52.168;9.866;2023-12-20T03:22:52;100143.81;;;5.98;89.84
13934;BME280;7039;52.168;9.866;2023-12-20T03:25:18;100132.22;;;5.83;90.42
13934;BME280;7039;52.168;9.866;2023-12-20T03:27:45;100126.91;;;5.62;92.89
13934;BME280;7039;52.168;9.866;2023-12-20T03:30:13;100130.19;;;5.68;93.57
13934;BME280;7039;52.168;9.866;2023-12-20T03:32:39;100111.75;;;5.52;95.25
13934;BME280;7039;52.168;9.866;2023-12-20T03:35:06;100113.50;;;5.51;96.21
13934;BME280;7039;52.168;9.866;2023-12-20T03:37:32;100112.84;;;5.46;97.01
13934;BME280;7039;52.168;9.866;2023-12-20T03:39:59;100088.44;;;5.53;97.08
13934;BME280;7039;52.168;9.866;2023-12-20T03:42:25;100085.34;;;5.43;97.32
13934;BME280;7039;52.168;9.866;2023-12-20T03:44:52;100075.84;;;5.44;96.61
13934;BME280;7039;52.168;9.866;2023-12-20T03:47:19;100083.75;;;5.39;96.01
13934;BME280;7039;52.168;9.866;2023-12-20T03:49:46;100080.88;;;5.47;95.40
13934;BME280;7039;52.168;9.866;2023-12-20T03:52:12;100087.44;;;5.57;94.61
13934;BME280;7039;52.168;9.866;2023-12-20T03:54:40;100097.38;;;5.44;94.33
13934;BME280;7039;52.168;9.866;2023-12-20T03:57:07;100086.84;;;5.49;94.61
13934;BME280;7039;52.168;9.866;2023-12-20T03:59:35;100081.13;;;5.41;94.63
13934;BME280;7039;52.168;9.866;2023-12-20T04:02:01;100080.97;;;5.46;94.26
13934;BME280;7039;52.168;9.866;2023-12-20T04:04:29;100072.25;;;5.48;94.21
13934;BME280;7039;52.168;9.866;2023-12-20T04:06:55;100086.66;;;5.55;93.04
13934;BME280;7039;52.168;9.866;2023-12-20T04:09:21;100093.03;;;5.70;92.46
13934;BME280;7039;52.168;9.866;2023-12-20T04:11:48;100086.59;;;5.57;93.23
13934;BME280;7039;52.168;9.866;2023-12-20T04:14:14;100085.97;;;5.74;93.01
13934;BME280;7039;52.168;9.866;2023-12-20T04:16:41;100089.28;;;6.02;91.85
13934;BME280;7039;52.168;9.866;2023-12-20T04:19:09;100086.78;;;5.99;91.71
13934;BME280;7039;52.168;9.866;2023-12-20T04:21:37;100081.00;;;5.93;92.77
13934;BME280;7039;52.168;9.866;2023-12-20T04:24:04;100074.28;;;5.63;93.33
13934;BME280;7039;52.168;9.866;2023-12-20T04:26:31;100077.50;;;5.94;93.23
13934;BME280;7039;52.168;9.866;2023-12-20T04:28:57;100076.88;;;5.87;92.60
13934;BME280;7039;52.168;9.866;2023-12-20T04:31:24;100081.13;;;5.88;91.95
13934;BME280;7039;52.168;9.866;2023-12-20T04:33:50;100065.59;;;5.88;92.49
13934;BME280;7039;52.168;9.866;2023-12-20T04:36:17;100087.19;;;5.89;92.15
13934;BME280;7039;52.168;9.866;2023-12-20T04:38:44;100073.38;;;5.88;92.05
13934;BME280;7039;52.168;9.866;2023-12-20T04:41:11;100084.03;;;6.04;91.35
13934;BME280;7039;52.168;9.866;2023-12-20T04:43:40;100098.31;;;6.14;90.85
13934;BME280;7039;52.168;9.866;2023-12-20T04:46:07;100079.59;;;6.07;91.43
13934;BME280;7039;52.168;9.866;2023-12-20T04:48:33;100076.22;;;6.05;91.44
13934;BME280;7039;52.168;9.866;2023-12-20T04:51:00;100067.13;;;5.95;91.88
13934;BME280;7039;52.168;9.866;2023-12-20T04:53:26;100058.72;;;5.89;92.08
13934;BME280;7039;52.168;9.866;2023-12-20T04:55:54;100060.28;;;5.93;92.36
13934;BME280;7039;52.168;9.866;2023-12-20T04:58:20;100057.75;;;5.91;92.77
13934;BME280;7039;52.168;9.866;2023-12-20T05:00:47;100063.56;;;5.98;92.09
13934;BME280;7039;52.168;9.866;2023-12-20T05:03:13;100059.38;;;5.94;92.38
13934;BME280;7039;52.168;9.866;2023-12-20T05:05:40;100056.66;;;5.98;92.51
13934;BME280;7039;52.168;9.866;2023-12-20T05:08:06;100066.22;;;5.96;92.25
13934;BME280;7039;52.168;9.866;2023-12-20T05:10:33;100066.25;;;5.95;92.68
13934;BME280;7039;52.168;9.866;2023-12-20T05:13:01;100066.59;;;6.09;92.52
13934;BME280;7039;52.168;9.866;2023-12-20T05:15:27;100062.88;;;5.93;92.78
13934;BME280;7039;52.168;9.866;2023-12-20T05:17:54;100068.78;;;5.96;92.49
13934;BME280;7039;52.168;9.866;2023-12-20T05:20:20;100057.59;;;5.96;93.12
13934;BME280;7039;52.168;9.866;2023-12-20T05:22:47;100062.09;;;5.91;93.31
13934;BME280;7039;52.168;9.866;2023-12-20T05:25:13;100049.19;;;5.89;93.27
13934;BME280;7039;52.168;9.866;2023-12-20T05:27:40;100049.88;;;5.94;92.23
13934;BME280;7039;52.168;9.866;2023-12-20T05:30:08;100058.38;;;5.98;92.60
13934;BME280;7039;52.168;9.866;2023-12-20T05:32:35;100060.72;;;6.04;92.67
13934;BME280;7039;52.168;9.866;2023-12-20T05:35:02;100065.41;;;6.18;92.06
13934;BME280;7039;52.168;9.866;2023-12-20T05:37:29;100071.41;;;6.18;92.81
13934;BME280;7039;52.168;9.866;2023-12-20T05:39:55;100073.69;;;6.26;91.72
13934;BME280;7039;52.168;9.866;2023-12-20T05:42:22;100061.13;;;6.17;91.90
13934;BME280;7039;52.168;9.866;2023-12-20T05:47:59;100041.84;;;6.02;92.68
13934;BME280;7039;52.168;9.866;2023-12-20T05:50:26;100048.41;;;6.11;93.03
13934;BME280;7039;52.168;9.866;2023-12-20T05:52:52;100062.91;;;6.15;92.60
13934;BME280;7039;52.168;9.866;2023-12-20T05:55:18;100069.66;;;6.19;93.40
13934;BME280;7039;52.168;9.866;2023-12-20T05:57:45;100054.84;;;6.00;94.72
13934;BME280;7039;52.168;9.866;2023-12-20T06:00:13;100058.22;;;6.02;95.26
13934;BME280;7039;52.168;9.866;2023-12-20T06:02:40;100057.38;;;6.02;95.53
13934;BME280;7039;52.168;9.866;2023-12-20T06:05:09;100062.31;;;5.84;98.74
13934;BME280;7039;52.168;9.866;2023-12-20T06:07:35;100049.94;;;5.69;99.90
13934;BME280;7039;52.168;9.866;2023-12-20T06:10:02;100059.16;;;5.76;99.91
13934;BME280;7039;52.168;9.866;2023-12-20T06:12:28;100060.00;;;5.77;100.00
13934;BME280;7039;52.168;9.866;2023-12-20T06:14:57;100061.53;;;5.59;99.43
13934;BME280;7039;52.168;9.866;2023-12-20T06:17:23;100060.38;;;5.90;98.59
13934;BME280;7039;52.168;9.866;2023-12-20T06:19:50;100075.28;;;5.83;98.03
13934;BME280;7039;52.168;9.866;2023-12-20T06:22:18;100055.44;;;5.83;97.39
13934;BME280;7039;52.168;9.866;2023-12-20T06:24:44;100060.84;;;5.77;98.07
13934;BME280;7039;52.168;9.866;2023-12-20T06:27:10;100069.63;;;5.73;97.98
13934;BME280;7039;52.168;9.866;2023-12-20T06:29:37;100044.78;;;5.68;97.21
13934;BME280;7039;52.168;9.866;2023-12-20T06:32:04;100043.06;;;5.92;96.71
13934;BME280;7039;52.168;9.866;2023-12-20T06:34:31;100057.09;;;5.86;96.56
13934;BME280;7039;52.168;9.866;2023-12-20T06:36:57;100063.50;;;5.99;96.68
13934;BME280;7039;52.168;9.866;2023-12-20T06:39:25;100067.00;;;5.75;98.64
13934;BME280;7039;52.168;9.866;2023-12-20T06:41:51;100051.84;;;5.64;99.90
13934;BME280;7039;52.168;9.866;2023-12-20T06:44:18;100064.81;;;5.62;100.00
13934;BME280;7039;52.168;9.866;2023-12-20T06:46:44;100065.13;;;5.55;100.00
13934;BME280;7039;52.168;9.866;2023-12-20T06:49:11;100063.03;;;5.64;100.00
13934;BME280;7039;52.168;9.866;2023-12-20T06:51:37;100056.09;;;5.41;100.00
13934;BME280;7039;52.168;9.866;2023-12-20T06:54:04;100061.41;;;5.62;100.00
13934;BME280;7039;52.168;9.866;2023-12-20T06:56:32;100053.66;;;5.62;100.00
13934;BME280;7039;52.168;9.866;2023-12-20T06:58:58;100054.13;;;5.72;99.23
13934;BME280;7039;52.168;9.866;2023-12-20T07:01:25;100046.50;;;5.69;99.19
13934;BME280;7039;52.168;9.866;2023-12-20T07:03:51;100067.03;;;5.73;98.46
13934;BME280;7039;52.168;9.866;2023-12-20T07:06:18;100052.34;;;5.74;98.83
13934;BME280;7039;52.168;9.866;2023-12-20T07:08:45;100052.16;;;5.78;98.28
13934;BME280;7039;52.168;9.866;2023-12-20T07:11:12;100058.59;;;5.68;97.39
13934;BME280;7039;52.168;9.866;2023-12-20T07:13:40;100048.75;;;5.78;97.01
13934;BME280;7039;52.168;9.866;2023-12-20T07:16:06;100029.13;;;5.49;97.38
13934;BME280;7039;52.168;9.866;2023-12-20T07:18:33;100041.31;;;5.69;95.99
13934;BME280;7039;52.168;9.866;2023-12-20T07:20:59;100042.50;;;5.60;96.57
13934;BME280;7039;52.168;9.866;2023-12-20T07:23:25;100041.44;;;5.65;95.97
13934;BME280;7039;52.168;9.866;2023-12-20T07:25:52;100038.78;;;5.67;96.50
13934;BME280;7039;52.168;9.866;2023-12-20T07:28:18;100034.25;;;5.50;96.09
13934;BME280;7039;52.168;9.866;2023-12-20T07:30:47;100031.56;;;5.77;94.44
13934;BME280;7039;52.168;9.866;2023-12-20T07:33:13;100029.22;;;5.46;95.73
13934;BME280;7039;52.168;9.866;2023-12-20T07:35:39;100034.06;;;5.55;94.97
13934;BME280;7039;52.168;9.866;2023-12-20T07:38:06;100036.38;;;5.39;95.91
13934;BME280;7039;52.168;9.866;2023-12-20T07:40:32;100037.88;;;5.44;95.49
13934;BME280;7039;52.168;9.866;2023-12-20T07:42:59;100042.88;;;5.49;95.22
13934;BME280;7039;52.168;9.866;2023-12-20T07:45:25;100039.50;;;5.47;95.04
13934;BME280;7039;52.168;9.866;2023-12-20T07:47:53;100038.75;;;5.69;94.53
13934;BME280;7039;52.168;9.866;2023-12-20T07:50:20;100042.38;;;5.63;94.78
13934;BME280;7039;52.168;9.866;2023-12-20T07:52:46;100035.50;;;5.85;93.93
13934;BME280;7039;52.168;9.866;2023-12-20T07:55:13;100038.88;;;5.65;95.39
13934;BME280;7039;52.168;9.866;2023-12-20T07:57:39;100020.75;;;5.65;94.91
13934;BME280;7039;52.168;9.866;2023-12-20T08:00:06;100025.75;;;5.70;94.20
13934;BME280;7039;52.168;9.866;2023-12-20T08:02:33;100042.44;;;5.85;93.35
13934;BME280;7039;52.168;9.866;2023-12-20T08:05:01;100040.97;;;5.78;93.73
13934;BME280;7039;52.168;9.866;2023-12-20T08:07:27;100042.25;;;5.90;93.14
13934;BME280;7039;52.168;9.866;2023-12-20T08:09:54;100032.13;;;5.83;93.28
13934;BME280;7039;52.168;9.866;2023-12-20T08:12:22;100031.91;;;5.90;93.64
13934;BME280;7039;52.168;9.866;2023-12-20T08:14:48;100032.69;;;5.92;93.41
13934;BME280;7039;52.168;9.866;2023-12-20T08:17:15;100037.59;;;5.99;91.75
13934;BME280;7039;52.168;9.866;2023-12-20T08:19:44;100045.81;;;6.11;91.98
13934;BME280;7039;52.168;9.866;2023-12-20T08:22:12;100045.81;;;6.11;91.97
13934;BME280;7039;52.168;9.866;2023-12-20T08:24:38;100050.75;;;6.17;91.89
13934;BME280;7039;52.168;9.866;2023-12-20T08:27:05;100046.28;;;5.98;92.16
13934;BME280;7039;52.168;9.866;2023-12-20T08:29:32;100041.50;;;6.11;91.23
13934;BME280;7039;52.168;9.866;2023-12-20T08:31:59;100036.13;;;6.16;92.36
13934;BME280;7039;52.168;9.866;2023-12-20T08:34:25;100044.75;;;6.16;91.92
13934;BME280;7039;52.168;9.866;2023-12-20T08:36:51;100041.31;;;6.16;91.41
13934;BME280;7039;52.168;9.866;2023-12-20T08:39:19;100036.75;;;6.22;90.85
13934;BME280;7039;52.168;9.866;2023-12-20T08:41:46;100038.00;;;6.34;90.74
13934;BME280;7039;52.168;9.866;2023-12-20T08:44:12;100035.03;;;6.21;90.83
13934;BME280;7039;52.168;9.866;2023-12-20T08:46:39;100022.41;;;6.14;90.89
13934;BME280;7039;52.168;9.866;2023-12-20T08:49:05;100014.28;;;6.23;89.51
13934;BME280;7039;52.168;9.866;2023-12-20T08:51:32;100017.88;;;6.19;90.44
13934;BME280;7039;52.168;9.866;2023-12-20T08:53:58;100011.25;;;6.12;91.76
13934;BME280;7039;52.168;9.866;2023-12-20T08:56:26;100010.13;;;6.19;90.93
13934;BME280;7039;52.168;9.866;2023-12-20T08:58:53;99998.38;;;6.10;91.44
13934;BME280;7039;52.168;9.866;2023-12-20T09:01:19;99989.09;;;6.04;91.40
13934;BME280;7039;52.168;9.866;2023-12-20T09:03:46;99999.09;;;6.14;91.63
13934;BME280;7039;52.168;9.866;2023-12-20T09:06:12;100006.19;;;6.09;92.52
13934;BME280;7039;52.168;9.866;2023-12-20T09:08:39;100005.53;;;6.25;91.11
13934;BME280;7039;52.168;9.866;2023-12-20T09:11:06;100008.19;;;6.24;92.12
13934;BME280;7039;52.168;9.866;2023-12-20T09:13:34;99986.56;;;6.25;92.68
13934;BME280;7039;52.168;9.866;2023-12-20T09:16:01;99989.94;;;6.27;91.92
13934;BME280;7039;52.168;9.866;2023-12-20T09:18:27;99993.56;;;6.23;91.97
13934;BME280;7039;52.168;9.866;2023-12-20T09:20:54;99999.44;;;6.26;91.80
13934;BME280;7039;52.168;9.866;2023-12-20T09:23:20;99988.91;;;6.31;92.05
13934;BME280;7039;52.168;9.866;2023-12-20T09:25:47;99995.81;;;6.31;92.20
13934;BME280;7039;52.168;9.866;2023-12-20T09:28:15;99974.28;;;6.30;91.01
13934;BME280;7039;52.168;9.866;2023-12-20T09:30:43;99980.19;;;6.34;91.27
13934;BME280;7039;52.168;9.866;2023-12-20T09:33:11;99987.69;;;6.40;90.20
13934;BME280;7039;52.168;9.866;2023-12-20T09:35:37;99993.41;;;6.48;89.90
13934;BME280;7039;52.168;9.866;2023-12-20T09:38:04;99993.88;;;6.58;89.80
13934;BME280;7039;52.168;9.866;2023-12-20T09:40:32;99978.00;;;6.45;89.80
13934;BME280;7039;52.168;9.866;2023-12-20T09:43:04;99980.59;;;6.45;90.93
13934;BME280;7039;52.168;9.866;2023-12-20T09:45:31;99961.03;;;6.58;90.18
13934;BME280;7039;52.168;9.866;2023-12-20T09:47:59;99951.97;;;6.68;90.06
13934;BME280;7039;52.168;9.866;2023-12-20T09:50:25;99961.09;;;6.77;88.78
13934;BME280;7039;52.168;9.866;2023-12-20T09:52:53;99949.97;;;6.55;87.74
13934;BME280;7039;52.168;9.866;2023-12-20T09:55:21;99963.56;;;6.60;88.70
13934;BME280;7039;52.168;9.866;2023-12-20T09:57:48;99971.00;;;6.67;88.99
13934;BME280;7039;52.168;9.866;2023-12-20T10:00:16;99951.03;;;6.69;88.74
13934;BME280;7039;52.168;9.866;2023-12-20T10:02:47;99949.22;;;6.92;88.31
13934;BME280;7039;52.168;9.866;2023-12-20T10:05:17;99945.16;;;6.66;88.39
13934;BME280;7039;52.168;9.866;2023-12-20T10:07:45;99953.38;;;6.76;88.25
13934;BME280;7039;52.168;9.866;2023-12-20T10:10:13;99945.34;;;6.82;88.51
13934;BME280;7039;52.168;9.866;2023-12-20T10:12:39;99947.41;;;6.74;88.48
13934;BME280;7039;52.168;9.866;2023-12-20T10:15:06;99935.97;;;6.79;88.38
13934;BME280;7039;52.168;9.866;2023-12-20T10:17:35;99940.59;;;6.92;87.73
13934;BME280;7039;52.168;9.866;2023-12-20T10:20:03;99922.41;;;6.93;87.66
13934;BME280;7039;52.168;9.866;2023-12-20T10:22:35;99939.81;;;6.89;87.96
13934;BME280;7039;52.168;9.866;2023-12-20T10:25:03;99930.75;;;7.00;88.61
13934;BME280;7039;52.168;9.866;2023-12-20T10:27:30;99925.31;;;6.85;88.79
13934;BME280;7039;52.168;9.866;2023-12-20T10:29:58;99913.97;;;6.88;89.29
13934;BME280;7039;52.168;9.866;2023-12-20T10:32:26;99937.50;;;6.83;89.17
13934;BME280;7039;52.168;9.866;2023-12-20T10:34:54;99908.75;;;6.69;90.58
13934;BME280;7039;52.168;9.866;2023-12-20T10:37:21;99893.41;;;6.64;89.60
13934;BME280;7039;52.168;9.866;2023-12-20T10:39:50;99902.28;;;6.79;90.08
13934;BME280;7039;52.168;9.866;2023-12-20T10:42:19;99902.69;;;6.89;89.93
13934;BME280;7039;52.168;9.866;2023-12-20T10:44:47;99897.88;;;6.81;90.32
13934;BME280;7039;52.168;9.866;2023-12-20T10:47:15;99885.16;;;6.75;89.76
13934;BME280;7039;52.168;9.866;2023-12-20T10:49:41;99912.75;;;6.76;89.76
13934;BME280;7039;52.168;9.866;2023-12-20T10:52:08;99908.28;;;6.80;90.54
13934;BME280;7039;52.168;9.866;2023-12-20T10:54:35;99912.25;;;6.88;90.53
13934;BME280;7039;52.168;9.866;2023-12-20T10:57:04;99917.22;;;6.93;91.43
13934;BME280;7039;52.168;9.866;2023-12-20T10:59:33;99919.47;;;7.01;90.45
13934;BME280;7039;52.168;9.866;2023-12-20T11:02:02;99916.94;;;6.99;90.74
13934;BME280;7039;52.168;9.866;2023-12-20T11:04:36;99914.81;;;6.88;91.15
13934;BME280;7039;52.168;9.866;2023-12-20T11:07:16;99914.59;;;7.14;91.62
13934;BME280;7039;52.168;9.866;2023-12-20T11:09:49;99902.13;;;6.82;92.74
13934;BME280;7039;52.168;9.866;2023-12-20T11:12:32;99896.44;;;6.74;93.15
13934;BME280;7039;52.168;9.866;2023-12-20T11:15:02;99904.41;;;6.69;94.23
13934;BME280;7039;52.168;9.866;2023-12-20T11:17:31;99890.94;;;6.61;96.42
13934;BME280;7039;52.168;9.866;2023-12-20T11:20:08;99891.16;;;6.57;96.55
13934;BME280;7039;52.168;9.866;2023-12-20T11:22:39;99900.97;;;6.48;97.08
13934;BME280;7039;52.168;9.866;2023-12-20T11:25:18;99898.78;;;6.39;99.05
13934;BME280;7039;52.168;9.866;2023-12-20T11:28:09;99906.03;;;6.31;100.00
13934;BME280;7039;52.168;9.866;2023-12-20T11:30:43;99892.47;;;6.24;100.00
13934;BME280;7039;52.168;9.866;2023-12-20T11:33:13;99898.13;;;6.34;100.00
13934;BME280;7039;52.168;9.866;2023-12-20T11:35:39;99883.88;;;6.24;100.00
13934;BME280;7039;52.168;9.866;2023-12-20T11:38:08;99893.78;;;6.35;100.00
13934;BME280;7039;52.168;9.866;2023-12-20T11:40:35;99895.25;;;6.20;100.00
13934;BME280;7039;52.168;9.866;2023-12-20T11:43:03;99887.84;;;6.33;100.00
13934;BME280;7039;52.168;9.866;2023-12-20T11:45:30;99878.59;;;6.27;100.00
13934;BME280;7039;52.168;9.866;2023-12-20T11:47:57;99869.06;;;6.48;100.00
13934;BME280;7039;52.168;9.866;2023-12-20T11:50:24;99876.84;;;6.48;99.91
13934;BME280;7039;52.168;9.866;2023-12-20T11:52:52;99874.50;;;6.42;98.01
13934;BME280;7039;52.168;9.866;2023-12-20T11:55:19;99874.69;;;6.37;98.36
13934;BME280;7039;52.168;9.866;2023-12-20T11:57:45;99853.72;;;6.43;97.09
13934;BME280;7039;52.168;9.866;2023-12-20T12:00:14;99866.41;;;6.50;97.52
13934;BME280;7039;52.168;9.866;2023-12-20T12:02:41;99867.25;;;6.50;97.33
13934;BME280;7039;52.168;9.866;2023-12-20T12:05:08;99875.88;;;6.69;95.01
13934;BME280;7039;52.168;9.866;2023-12-20T12:07:34;99872.03;;;6.59;97.42
13934;BME280;7039;52.168;9.866;2023-12-20T12:10:01;99891.72;;;6.63;96.62
13934;BME280;7039;52.168;9.866;2023-12-20T12:12:28;99896.38;;;6.55;97.20
13934;BME280;7039;52.168;9.866;2023-12-20T12:14:55;99924.28;;;6.69;97.76
13934;BME280;7039;52.168;9.866;2023-12-20T12:17:24;99899.63;;;5.53;94.86
13934;BME280;7039;52.168;9.866;2023-12-20T12:19:51;99875.34;;;4.63;97.40
13934;BME280;7039;52.168;9.866;2023-12-20T12:22:27;99891.28;;;4.51;100.00
13934;BME280;7039;52.168;9.866;2023-12-20T12:24:54;99892.38;;;4.18;100.00
13934;BME280;7039;52.168;9.866;2023-12-20T12:27:20;99875.31;;;4.14;100.00
13934;BME280;7039;52.168;9.866;2023-12-20T12:30:00;99883.25;;;4.08;100.00
13934;BME280;7039;52.168;9.866;2023-12-20T12:32:28;99883.81;;;4.18;100.00
13934;BME280;7039;52.168;9.866;2023-12-20T12:34:55;99886.22;;;4.23;100.00
13934;BME280;7039;52.168;9.866;2023-12-20T12:37:22;99881.63;;;4.31;100.00
13934;BME280;7039;52.168;9.866;2023-12-20T12:39:49;99892.13;;;4.26;100.00
13934;BME280;7039;52.168;9.866;2023-12-20T12:42:15;99887.91;;;4.24;100.00
13934;BME280;7039;52.168;9.866;2023-12-20T12:44:42;99866.50;;;4.20;100.00
13934;BME280;7039;52.168;9.866;2023-12-20T12:47:08;99874.47;;;4.39;100.00
13934;BME280;7039;52.168;9.866;2023-12-20T12:49:36;99898.13;;;4.52;98.40
13934;BME280;7039;52.168;9.866;2023-12-20T12:52:03;99892.41;;;4.44;96.85
13934;BME280;7039;52.168;9.866;2023-12-20T12:54:30;99866.97;;;4.56;94.70
13934;BME280;7039;52.168;9.866;2023-12-20T12:56:56;99917.31;;;4.45;94.89
13934;BME280;7039;52.168;9.866;2023-12-20T12:59:23;99850.13;;;4.46;95.83
13934;BME280;7039;52.168;9.866;2023-12-20T13:01:50;99845.09;;;4.43;96.51
13934;BME280;7039;52.168;9.866;2023-12-20T13:04:16;99850.25;;;4.43;97.47
13934;BME280;7039;52.168;9.866;2023-12-20T13:06:44;99849.19;;;4.49;99.15
13934;BME280;7039;52.168;9.866;2023-12-20T13:09:10;99842.72;;;4.60;99.99
13934;BME280;7039;52.168;9.866;2023-12-20T13:11:37;99840.16;;;4.60;100.00
13934;BME280;7039;52.168;9.866;2023-12-20T13:14:03;99851.00;;;4.70;99.92
13934;BME280;7039;52.168;9.866;2023-12-20T13:16:30;99870.09;;;4.90;98.85